Time;durP1;ratioP1;P1;durP2;ratioP2;P2;SDS_P1;SDS_P2;PMS_P1;PMS_P2;Temp;Humidity;BMP_temperature;BMP_pressure;BME280_temperature;BME280_humidity;BME280_pressure;Samples;Min_cycle;Max_cycle;Signal;HPM_P1;HPM_P2
2021/03/12 00:00:18;;;;;;;0.30;0.10;;;;;;;3.62;100.00;95444.94;1027908;28;20015;-56
2021/03/12 00:00:49;;;;;;;1.73;0.10;;;;;;;3.63;100.00;95438.72;1036093;28;20041;-56
2021/03/12 00:01:20;;;;;;;0.10;0.10;;;;;;;3.61;100.00;95444.13;1035940;28;20534;-57
2021/03/12 00:01:50;;;;;;;0.68;0.40;;;;;;;3.60;100.00;95442.44;1024017;28;20026;-57
2021/03/12 00:02:21;;;;;;;0.10;0.03;;;;;;;3.61;100.00;95444.13;1027949;28;20019;-57
2021/03/12 00:02:52;;;;;;;0.17;0.10;;;;;;;3.55;100.00;95437.66;1024021;29;20030;-57
2021/03/12 00:03:27;;;;;;;0.40;0.25;;;;;;;3.61;100.00;95448.53;1031831;28;20015;-57
2021/03/12 00:03:58;;;;;;;0.25;0.15;;;;;;;3.61;100.00;95441.50;1032636;28;20440;-58
2021/03/12 00:04:28;;;;;;;0.20;0.17;;;;;;;3.63;100.00;95446.59;1024009;28;20019;-58
2021/03/12 00:04:59;;;;;;;1.55;0.22;;;;;;;3.63;100.00;95452.66;1027963;28;20027;-58
2021/03/12 00:05:30;;;;;;;0.80;0.15;;;;;;;3.59;100.00;95440.81;1023839;29;20521;-57
2021/03/12 00:06:05;;;;;;;0.45;0.13;;;;;;;3.67;100.00;95454.00;1023930;28;20106;-57
2021/03/12 00:06:35;;;;;;;1.85;0.98;;;;;;;3.68;100.00;95447.00;1027862;28;20015;-56
2021/03/12 00:07:06;;;;;;;1.85;0.65;;;;;;;3.67;100.00;95448.75;1031970;28;20053;-57
2021/03/12 00:07:38;;;;;;;0.25;0.20;;;;;;;3.66;100.00;95452.38;1027762;28;20515;-56
2021/03/12 00:08:09;;;;;;;1.77;0.20;;;;;;;3.50;100.00;95431.16;1024030;28;20015;-57
2021/03/12 00:08:41;;;;;;;0.70;0.20;;;;;;;3.71;100.00;95459.81;1031924;28;20105;-57
2021/03/12 00:09:12;;;;;;;0.10;0.10;;;;;;;3.69;100.00;95446.00;1023924;28;20015;-58
2021/03/12 00:09:43;;;;;;;3.22;0.20;;;;;;;3.69;100.00;95452.09;1031818;28;20404;-57
2021/03/12 00:10:16;;;;;;;0.32;0.20;;;;;;;3.68;100.00;95449.63;1032113;28;20065;-57
2021/03/12 00:10:47;;;;;;;0.08;0.05;;;;;;;3.68;100.00;95445.19;1019981;28;20115;-58
2021/03/12 00:11:20;;;;;;;0.10;0.10;;;;;;;3.67;100.00;95442.69;1031967;28;20396;-55
2021/03/12 00:11:52;;;;;;;0.22;0.13;;;;;;;3.68;100.00;95454.88;1031868;28;20388;-57
2021/03/12 00:12:23;;;;;;;0.20;0.10;;;;;;;3.69;100.00;95453.88;1031917;28;20095;-57
2021/03/12 00:12:54;;;;;;;1.48;0.22;;;;;;;3.64;100.00;95432.47;1035989;28;20121;-57
2021/03/12 00:13:25;;;;;;;0.47;0.10;;;;;;;3.70;100.00;95445.03;1023953;28;20043;-56
2021/03/12 00:13:56;;;;;;;1.65;0.30;;;;;;;3.71;100.00;95438.78;1027632;28;20027;-56
2021/03/12 00:14:27;;;;;;;0.35;0.20;;;;;;;3.73;100.00;95450.00;1027907;28;20473;-57
2021/03/12 00:14:57;;;;;;;0.20;0.20;;;;;;;3.72;100.00;95437.84;1019879;28;20022;-57
2021/03/12 00:15:28;;;;;;;0.13;0.10;;;;;;;3.71;100.00;95442.28;1027873;28;20029;-57
2021/03/12 00:15:59;;;;;;;0.80;0.20;;;;;;;3.70;100.00;95437.16;1027975;28;20504;-57
2021/03/12 00:16:30;;;;;;;0.93;0.20;;;;;;;3.69;100.00;95440.75;1023947;28;20505;-57
2021/03/12 00:17:00;;;;;;;0.57;0.10;;;;;;;3.59;100.00;95425.88;1027894;28;20031;-56
2021/03/12 00:17:31;;;;;;;1.42;0.20;;;;;;;3.66;100.00;95431.38;1031936;28;20466;-57
2021/03/12 00:18:02;;;;;;;0.43;0.10;;;;;;;3.70;100.00;95437.16;1031758;28;20116;-57
2021/03/12 00:18:35;;;;;;;0.80;0.25;;;;;;;3.69;100.00;95441.59;1031967;28;20396;-57
2021/03/12 00:19:06;;;;;;;0.60;0.20;;;;;;;3.69;100.00;95457.34;1031990;28;20014;-55
2021/03/12 00:19:37;;;;;;;0.22;0.10;;;;;;;3.71;100.00;95449.28;1031923;28;20463;-57
2021/03/12 00:20:11;;;;;;;1.08;0.30;;;;;;;3.72;100.00;95445.72;1031751;28;20469;-56
2021/03/12 00:20:42;;;;;;;1.08;0.25;;;;;;;3.71;100.00;95463.28;1032030;28;20022;-56
2021/03/12 00:21:15;;;;;;;0.10;0.10;;;;;;;3.71;100.00;95459.81;1019916;29;20580;-56
2021/03/12 00:21:46;;;;;;;0.30;0.10;;;;;;;3.73;100.00;95458.69;1027801;28;20122;-57
2021/03/12 00:22:16;;;;;;;1.80;0.32;;;;;;;3.72;100.00;95461.47;1023704;28;20033;-56
2021/03/12 00:22:47;;;;;;;0.85;0.20;;;;;;;3.73;100.00;95461.31;1028018;28;20019;-56
2021/03/12 00:23:18;;;;;;;1.40;0.20;;;;;;;3.75;100.00;95466.44;1027815;28;20440;-55
2021/03/12 00:23:48;;;;;;;0.30;0.20;;;;;;;3.74;100.00;95455.09;1023763;28;20082;-57
2021/03/12 00:24:19;;;;;;;0.32;0.20;;;;;;;3.73;100.00;95453.44;1023348;28;20019;-57
2021/03/12 00:24:50;;;;;;;0.10;0.10;;;;;;;3.72;100.00;95461.47;1019893;29;20479;-57
2021/03/12 00:25:25;;;;;;;0.20;0.20;;;;;;;3.72;100.00;95461.47;1031734;28;20086;-55
2021/03/12 00:25:56;;;;;;;0.38;0.17;;;;;;;3.72;100.00;95466.72;1019937;28;20027;-56
2021/03/12 00:26:27;;;;;;;1.35;0.30;;;;;;;3.72;100.00;95467.53;1031683;28;20129;-56
2021/03/12 00:26:59;;;;;;;1.48;0.30;;;;;;;3.73;100.00;95450.00;1031828;28;20497;-58
2021/03/12 00:27:29;;;;;;;1.75;0.38;;;;;;;3.71;100.00;95454.56;1027823;28;20023;-57
2021/03/12 00:28:00;;;;;;;1.00;0.20;;;;;;;3.71;100.00;95449.28;1019856;28;20039;-57
2021/03/12 00:28:31;;;;;;;2.55;0.40;;;;;;;3.70;100.00;95453.72;1031615;28;20018;-57
2021/03/12 00:29:02;;;;;;;0.35;0.20;;;;;;;3.71;100.00;95446.66;1031814;28;20026;-57
2021/03/12 00:29:33;;;;;;;0.30;0.20;;;;;;;3.70;100.00;95435.34;1031784;28;20030;-57
2021/03/12 00:30:04;;;;;;;1.45;0.20;;;;;;;3.71;100.00;95423.03;1019825;28;20130;-57
2021/03/12 00:30:35;;;;;;;0.60;0.20;;;;;;;3.71;100.00;95433.53;1031713;28;20022;-57
2021/03/12 00:31:06;;;;;;;1.25;0.38;;;;;;;3.70;100.00;95434.53;1027873;28;20019;-57
2021/03/12 00:31:37;;;;;;;0.55;0.30;;;;;;;3.70;100.00;95426.66;1027844;28;20025;-57
2021/03/12 00:32:08;;;;;;;0.85;0.40;;;;;;;3.70;100.00;95434.53;1027773;28;20426;-56
2021/03/12 00:32:38;;;;;;;1.20;0.30;;;;;;;3.70;100.00;95413.53;1031647;28;20062;-57
2021/03/12 00:33:10;;;;;;;2.58;0.30;;;;;;;3.70;100.00;95443.22;1027733;28;20420;-57
2021/03/12 00:33:40;;;;;;;0.65;0.20;;;;;;;3.70;100.00;95431.91;1027672;28;20462;-57
2021/03/12 00:34:11;;;;;;;3.13;0.50;;;;;;;3.70;100.00;95443.22;1031871;28;20037;-57
2021/03/12 00:34:42;;;;;;;0.90;0.35;;;;;;;3.72;100.00;95432.59;1031763;28;20019;-57
2021/03/12 00:35:14;;;;;;;0.55;0.30;;;;;;;3.71;100.00;95439.66;1019792;29;20051;-57
2021/03/12 00:35:44;;;;;;;1.05;0.20;;;;;;;3.71;100.00;95431.75;1027873;28;20089;-57
2021/03/12 00:36:15;;;;;;;1.65;0.30;;;;;;;3.70;100.00;95451.09;1023778;28;20149;-56
2021/03/12 00:36:46;;;;;;;0.55;0.20;;;;;;;3.69;100.00;95435.50;1023723;28;20075;-57
2021/03/12 00:37:17;;;;;;;0.77;0.20;;;;;;;3.70;100.00;95437.16;1023802;28;20027;-57
2021/03/12 00:37:47;;;;;;;0.77;0.30;;;;;;;3.68;100.00;95439.09;1019846;28;20486;-56
2021/03/12 00:38:18;;;;;;;1.00;0.22;;;;;;;3.69;100.00;95451.25;1023782;28;20022;-57
2021/03/12 00:38:49;;;;;;;1.42;0.20;;;;;;;3.68;100.00;95433.84;1027639;28;20531;-56
2021/03/12 00:39:20;;;;;;;0.75;0.40;;;;;;;3.68;100.00;95439.09;1027846;28;20497;-56
2021/03/12 00:39:51;;;;;;;2.10;0.52;;;;;;;3.66;100.00;95446.28;1019839;29;20020;-57
2021/03/12 00:40:25;;;;;;;0.38;0.20;;;;;;;3.65;100.00;95440.22;1023762;28;20513;-55
2021/03/12 00:40:57;;;;;;;2.15;0.40;;;;;;;3.64;100.00;95438.56;1019677;29;20020;-54
2021/03/12 00:41:28;;;;;;;0.85;0.30;;;;;;;3.65;100.00;95429.72;1031817;28;20568;-57
2021/03/12 00:41:59;;;;;;;1.40;0.55;;;;;;;3.66;100.00;95435.78;1027706;28;20127;-57
2021/03/12 00:42:30;;;;;;;1.20;0.32;;;;;;;3.65;100.00;95439.41;1019906;29;20528;-57
2021/03/12 00:43:01;;;;;;;0.63;0.20;;;;;;;3.65;100.00;95445.47;1023689;29;20012;-56
2021/03/12 00:43:32;;;;;;;0.73;0.30;;;;;;;3.68;100.00;95447.00;1031629;28;20016;-56
2021/03/12 00:44:03;;;;;;;0.30;0.20;;;;;;;3.69;100.00;95452.09;1027674;28;20014;-56
2021/03/12 00:44:34;;;;;;;0.75;0.10;;;;;;;3.71;100.00;95444.03;1027944;28;20046;-57
2021/03/12 00:45:06;;;;;;;0.82;0.30;;;;;;;3.72;100.00;95445.72;1035651;28;20026;-57
2021/03/12 00:45:37;;;;;;;0.38;0.20;;;;;;;3.70;100.00;95445.84;1023796;29;20456;-57
2021/03/12 00:46:09;;;;;;;1.10;0.30;;;;;;;3.68;100.00;95445.19;1027720;28;20061;-57
2021/03/12 00:46:40;;;;;;;3.47;0.20;;;;;;;3.67;100.00;95461.06;1023804;29;20110;-57
2021/03/12 00:47:11;;;;;;;0.85;0.30;;;;;;;3.67;100.00;95448.75;1023798;28;20381;-57
2021/03/12 00:47:43;;;;;;;0.80;0.20;;;;;;;3.68;100.00;95452.25;1023898;29;20536;-56
2021/03/12 00:48:13;;;;;;;0.55;0.20;;;;;;;3.68;100.00;95454.88;1023728;28;20023;-57
2021/03/12 00:48:44;;;;;;;0.52;0.20;;;;;;;3.67;100.00;95453.19;1027676;28;20058;-57
2021/03/12 00:49:15;;;;;;;1.30;0.25;;;;;;;3.68;100.00;95458.31;1027639;28;20029;-57
2021/03/12 00:49:46;;;;;;;2.45;0.30;;;;;;;3.62;100.00;95442.31;1031819;28;20499;-57
2021/03/12 00:50:21;;;;;;;0.35;0.20;;;;;;;3.68;100.00;95457.50;1031754;28;20027;-57
2021/03/12 00:50:52;;;;;;;0.30;0.15;;;;;;;3.68;100.00;95455.69;1031839;28;20038;-57
2021/03/12 00:51:23;;;;;;;2.10;0.20;;;;;;;3.67;100.00;95454.00;1020505;29;20024;-57
2021/03/12 00:51:54;;;;;;;0.90;0.20;;;;;;;3.68;100.00;95447.00;1027751;28;20492;-57
2021/03/12 00:52:25;;;;;;;1.52;0.30;;;;;;;3.67;100.00;95447.94;1019762;29;20024;-56
2021/03/12 00:52:55;;;;;;;2.20;0.28;;;;;;;3.69;100.00;95444.22;1027698;28;20032;-57
2021/03/12 00:53:26;;;;;;;0.25;0.10;;;;;;;3.70;100.00;95453.72;1019616;29;20043;-56
2021/03/12 00:53:57;;;;;;;0.80;0.20;;;;;;;3.70;100.00;95445.84;1019735;28;20027;-56
2021/03/12 00:54:28;;;;;;;0.17;0.17;;;;;;;3.69;100.00;95451.25;1031775;28;20452;-57
2021/03/12 00:54:59;;;;;;;0.20;0.10;;;;;;;3.67;100.00;95447.94;1027673;28;20122;-56
2021/03/12 00:55:30;;;;;;;1.25;0.20;;;;;;;3.62;100.00;95447.56;1027581;28;20058;-57
2021/03/12 00:56:00;;;;;;;1.70;0.20;;;;;;;3.65;100.00;95434.16;1031832;28;20018;-57
2021/03/12 00:56:31;;;;;;;0.38;0.22;;;;;;;3.65;100.00;95450.72;1028192;28;20408;-55
2021/03/12 00:57:02;;;;;;;1.33;0.30;;;;;;;3.62;100.00;95431.81;1029304;28;20066;-56
2021/03/12 00:57:33;;;;;;;1.75;0.28;;;;;;;3.65;100.00;95444.66;1029215;28;20110;-57
2021/03/12 00:58:04;;;;;;;0.30;0.22;;;;;;;3.63;100.00;95446.59;1026256;28;20027;-56
2021/03/12 00:58:35;;;;;;;0.60;0.20;;;;;;;3.63;100.00;95449.22;1029624;28;20077;-57
2021/03/12 00:59:06;;;;;;;2.13;0.22;;;;;;;3.61;100.00;95452.00;1030113;28;20118;-57
2021/03/12 00:59:37;;;;;;;0.80;0.30;;;;;;;3.62;100.00;95440.50;1034492;28;20030;-56
2021/03/12 01:00:09;;;;;;;0.93;0.35;;;;;;;3.64;100.00;95448.22;1022379;29;20054;-57
2021/03/12 01:00:40;;;;;;;0.57;0.20;;;;;;;3.64;100.00;95445.59;1030513;28;20022;-56
2021/03/12 01:01:11;;;;;;;0.43;0.10;;;;;;;3.62;100.00;95443.13;1030250;28;20015;-56
2021/03/12 01:01:41;;;;;;;0.75;0.17;;;;;;;3.66;100.00;95454.16;1022079;29;20032;-57
2021/03/12 01:02:12;;;;;;;0.47;0.25;;;;;;;3.66;100.00;95449.75;1034600;28;20022;-57
2021/03/12 01:02:43;;;;;;;0.82;0.20;;;;;;;3.67;100.00;95450.56;1031886;28;20463;-57
2021/03/12 01:03:14;;;;;;;3.22;1.38;;;;;;;3.71;100.00;95454.56;1027726;28;20102;-56
2021/03/12 01:03:45;;;;;;;0.98;0.38;;;;;;;3.70;100.00;95445.84;1031597;28;20076;-58
2021/03/12 01:04:15;;;;;;;1.58;0.22;;;;;;;3.71;100.00;95454.56;1023781;28;20417;-57
2021/03/12 01:04:46;;;;;;;0.52;0.30;;;;;;;3.71;100.00;95450.16;1035855;28;20025;-57
2021/03/12 01:05:17;;;;;;;0.20;0.13;;;;;;;3.62;100.00;95430.00;1031767;28;20022;-56
2021/03/12 01:05:48;;;;;;;0.80;0.20;;;;;;;3.70;100.00;95445.03;1027564;28;20485;-56
2021/03/12 01:06:19;;;;;;;1.25;0.22;;;;;;;3.68;100.00;95444.38;1027650;28;20110;-57
2021/03/12 01:06:49;;;;;;;0.40;0.17;;;;;;;3.69;100.00;95430.25;1023703;28;20366;-57
2021/03/12 01:07:20;;;;;;;0.10;0.10;;;;;;;3.72;100.00;95437.84;1027774;28;20037;-56
2021/03/12 01:07:51;;;;;;;0.28;0.15;;;;;;;3.72;100.00;95435.22;1031599;28;20121;-56
2021/03/12 01:08:21;;;;;;;1.05;0.25;;;;;;;3.70;100.00;95434.53;1023603;28;20026;-57
2021/03/12 01:08:53;;;;;;;0.85;0.15;;;;;;;3.70;100.00;95445.03;1031701;28;20031;-56
2021/03/12 01:09:23;;;;;;;1.67;0.25;;;;;;;3.71;100.00;95433.53;1031722;28;20130;-57
2021/03/12 01:09:54;;;;;;;0.88;0.30;;;;;;;3.75;100.00;95446.25;1027553;28;20043;-57
2021/03/12 01:10:25;;;;;;;1.17;0.30;;;;;;;3.74;100.00;95431.44;1027589;28;20022;-56
2021/03/12 01:10:56;;;;;;;1.27;0.22;;;;;;;3.74;100.00;95443.75;1027612;28;20401;-56
2021/03/12 01:11:27;;;;;;;0.40;0.20;;;;;;;3.74;100.00;95444.59;1019853;29;20020;-56
2021/03/12 01:11:58;;;;;;;0.08;0.08;;;;;;;3.75;100.00;95441.00;1031792;28;20024;-56
2021/03/12 01:12:29;;;;;;;1.77;0.20;;;;;;;3.77;100.00;95449.53;1023502;28;20030;-57
2021/03/12 01:12:59;;;;;;;1.23;0.65;;;;;;;3.80;100.00;95452.84;1023643;29;20454;-57
2021/03/12 01:13:30;;;;;;;2.17;0.32;;;;;;;3.81;100.00;95450.06;1027617;28;20102;-56
2021/03/12 01:14:01;;;;;;;0.30;0.17;;;;;;;3.81;100.00;95442.19;1023526;28;20015;-57
2021/03/12 01:14:32;;;;;;;1.35;0.50;;;;;;;3.81;100.00;95441.38;1023550;29;20030;-57
2021/03/12 01:15:05;;;;;;;0.65;0.20;;;;;;;3.80;100.00;95437.94;1027550;28;20109;-57
2021/03/12 01:15:36;;;;;;;1.85;0.30;;;;;;;3.80;100.00;95447.59;1027645;28;20029;-57
2021/03/12 01:16:07;;;;;;;1.25;0.30;;;;;;;3.79;100.00;95441.53;1023812;28;20031;-57
2021/03/12 01:16:37;;;;;;;1.48;0.35;;;;;;;3.78;100.00;95445.13;1027540;28;20616;-56
2021/03/12 01:17:08;;;;;;;1.08;0.40;;;;;;;3.78;100.00;95432.00;1031732;28;20018;-56
2021/03/12 01:17:39;;;;;;;0.45;0.15;;;;;;;3.77;100.00;95433.78;1027677;28;20019;-56
2021/03/12 01:18:10;;;;;;;2.65;0.40;;;;;;;3.79;100.00;95431.03;1031651;28;20117;-56
2021/03/12 01:18:41;;;;;;;1.58;0.20;;;;;;;3.82;100.00;95440.41;1023533;28;20071;-57
2021/03/12 01:19:11;;;;;;;1.20;0.30;;;;;;;3.80;100.00;95432.69;1031685;28;20048;-57
2021/03/12 01:19:42;;;;;;;0.50;0.20;;;;;;;3.82;100.00;95429.91;1031655;28;20018;-56
2021/03/12 01:20:20;;;;;;;0.63;0.35;;;;;;;3.81;100.00;95434.31;1035728;28;20073;-57
2021/03/12 01:20:51;;;;;;;2.10;0.35;;;;;;;3.80;100.00;95437.94;1027619;28;20019;-57
2021/03/12 01:21:22;;;;;;;0.95;0.20;;;;;;;3.81;100.00;95436.94;1027679;28;20018;-57
2021/03/12 01:21:52;;;;;;;1.45;0.38;;;;;;;3.81;100.00;95450.06;1031651;28;20018;-56
2021/03/12 01:22:23;;;;;;;0.35;0.15;;;;;;;3.82;100.00;95445.66;1027632;28;20131;-57
2021/03/12 01:22:55;;;;;;;0.43;0.30;;;;;;;3.81;100.00;95442.19;1027575;28;20015;-57
2021/03/12 01:23:26;;;;;;;0.63;0.22;;;;;;;3.82;100.00;95458.81;1031635;28;20025;-57
2021/03/12 01:23:56;;;;;;;0.15;0.10;;;;;;;3.83;100.00;95453.41;1027483;28;20516;-56
2021/03/12 01:24:27;;;;;;;1.77;0.28;;;;;;;3.83;100.00;95442.91;1031689;28;20025;-55
2021/03/12 01:24:58;;;;;;;0.85;0.25;;;;;;;3.81;100.00;95457.13;1031535;28;20037;-57
2021/03/12 01:25:39;;;;;;;3.60;0.38;;;;;;;3.81;100.00;95452.69;1027573;28;20015;-57
2021/03/12 01:26:09;;;;;;;1.60;0.43;;;;;;;3.82;100.00;95457.00;1023644;29;20043;-56
2021/03/12 01:26:40;;;;;;;1.45;0.52;;;;;;;3.83;100.00;95457.81;1031396;28;20488;-57
2021/03/12 01:27:11;;;;;;;1.17;0.22;;;;;;;3.83;100.00;95458.66;1023706;28;20437;-56
2021/03/12 01:27:42;;;;;;;0.80;0.20;;;;;;;3.83;100.00;95452.56;1031599;28;20037;-57
2021/03/12 01:28:13;;;;;;;1.65;0.38;;;;;;;3.86;100.00;95457.53;1031695;28;20014;-57
2021/03/12 01:28:43;;;;;;;0.73;0.28;;;;;;;3.81;100.00;95438.75;1031521;28;20089;-57
2021/03/12 01:29:14;;;;;;;0.63;0.20;;;;;;;3.88;100.00;95448.50;1027607;28;20019;-57
2021/03/12 01:29:45;;;;;;;0.52;0.30;;;;;;;3.89;100.00;95441.47;1035611;28;20057;-57
2021/03/12 01:30:19;;;;;;;2.13;0.20;;;;;;;3.88;100.00;95439.81;1027670;28;20304;-56
2021/03/12 01:30:49;;;;;;;1.02;0.20;;;;;;;3.89;100.00;95441.47;1023495;29;20039;-57
2021/03/12 01:31:20;;;;;;;0.60;0.20;;;;;;;3.89;100.00;95442.31;1023673;29;20023;-57
2021/03/12 01:31:52;;;;;;;0.73;0.32;;;;;;;3.90;100.00;95433.47;1027165;28;20118;-57
2021/03/12 01:32:22;;;;;;;2.63;0.43;;;;;;;3.91;100.00;95429.03;1027647;28;20395;-57
2021/03/12 01:32:53;;;;;;;0.43;0.20;;;;;;;3.90;100.00;95459.72;1027573;28;20118;-56
2021/03/12 01:33:24;;;;;;;1.40;0.25;;;;;;;3.91;100.00;95445.59;1027420;28;20030;-55
2021/03/12 01:33:54;;;;;;;2.72;0.20;;;;;;;3.93;100.00;95454.16;1031530;28;20022;-56
2021/03/12 01:34:25;;;;;;;0.73;0.13;;;;;;;3.92;100.00;95451.69;1031624;28;20540;-57
2021/03/12 01:34:56;;;;;;;2.05;0.60;;;;;;;3.93;100.00;95442.84;1023492;28;20027;-56
2021/03/12 01:35:27;;;;;;;1.75;0.13;;;;;;;3.92;100.00;95449.88;1031615;28;20459;-56
2021/03/12 01:35:57;;;;;;;2.28;0.30;;;;;;;3.94;100.00;95442.69;1031594;28;20542;-55
2021/03/12 01:36:28;;;;;;;0.40;0.20;;;;;;;3.91;100.00;95434.28;1019647;28;20079;-56
2021/03/12 01:36:59;;;;;;;1.75;0.30;;;;;;;3.93;100.00;95437.56;1031625;28;20112;-57
2021/03/12 01:37:29;;;;;;;1.63;0.95;;;;;;;3.91;100.00;95440.34;1023585;28;20481;-56
2021/03/12 01:38:00;;;;;;;1.98;0.30;;;;;;;3.88;100.00;95430.13;1023725;28;20029;-56
2021/03/12 01:38:31;;;;;;;0.75;0.30;;;;;;;3.90;100.00;95443.13;1027546;28;20015;-56
2021/03/12 01:39:03;;;;;;;1.13;0.22;;;;;;;3.91;100.00;95436.91;1023665;28;20043;-57
2021/03/12 01:39:34;;;;;;;0.20;0.20;;;;;;;3.90;100.00;95438.72;1023462;28;20058;-56
2021/03/12 01:40:06;;;;;;;0.30;0.15;;;;;;;3.87;100.00;95444.25;1031518;28;20176;-56
2021/03/12 01:40:42;;;;;;;0.93;0.30;;;;;;;3.88;100.00;95443.25;1019590;29;20027;-56
2021/03/12 01:41:12;;;;;;;1.55;0.28;;;;;;;3.85;100.00;95443.56;1027488;28;20459;-56
2021/03/12 01:41:43;;;;;;;3.38;0.20;;;;;;;3.86;100.00;95441.78;1027612;28;20022;-57
2021/03/12 01:42:14;;;;;;;0.88;0.22;;;;;;;3.83;100.00;95449.94;1031614;28;20468;-57
2021/03/12 01:42:45;;;;;;;0.60;0.20;;;;;;;3.84;100.00;95447.16;1023661;28;20015;-56
2021/03/12 01:43:20;;;;;;;0.50;0.20;;;;;;;3.88;100.00;95451.13;1023545;29;20019;-56
2021/03/12 01:43:50;;;;;;;1.15;0.28;;;;;;;3.89;100.00;95447.56;1027357;28;20022;-56
2021/03/12 01:44:21;;;;;;;1.63;0.30;;;;;;;3.90;100.00;95449.22;1027580;28;20027;-57
2021/03/12 01:44:52;;;;;;;0.20;0.10;;;;;;;3.90;100.00;95445.75;1023438;28;20039;-53
2021/03/12 01:45:26;;;;;;;0.50;0.20;;;;;;;3.85;100.00;95434.84;1027384;28;20023;-56
2021/03/12 01:45:57;;;;;;;0.57;0.30;;;;;;;3.83;100.00;95448.16;1027528;28;20078;-57
2021/03/12 01:46:27;;;;;;;1.13;0.20;;;;;;;3.86;100.00;95447.84;1027779;28;20019;-54
2021/03/12 01:46:58;;;;;;;1.13;0.20;;;;;;;3.87;100.00;95460.00;1027598;28;20456;-57
2021/03/12 01:47:29;;;;;;;0.50;0.35;;;;;;;3.89;100.00;95454.63;1019585;29;20688;-55
2021/03/12 01:48:00;;;;;;;0.08;0.03;;;;;;;3.88;100.00;95461.66;1027477;28;20023;-57
2021/03/12 01:48:31;;;;;;;2.60;0.50;;;;;;;3.89;100.00;95442.31;1019597;29;20019;-56
2021/03/12 01:49:02;;;;;;;1.08;0.22;;;;;;;3.90;100.00;95449.22;1023618;29;20393;-56
2021/03/12 01:49:32;;;;;;;0.75;0.20;;;;;;;3.89;100.00;95447.56;1031546;28;20022;-57
2021/03/12 01:50:04;;;;;;;3.97;0.32;;;;;;;3.90;100.00;95466.75;1027588;28;20025;-57
2021/03/12 01:50:35;;;;;;;0.75;0.20;;;;;;;3.83;100.00;95447.31;1027600;28;20114;-56
2021/03/12 01:51:07;;;;;;;0.73;0.20;;;;;;;3.90;100.00;95470.22;1031605;28;20018;-57
2021/03/12 01:51:37;;;;;;;1.95;0.30;;;;;;;3.88;100.00;95440.63;1039782;28;20098;-55
2021/03/12 01:52:08;;;;;;;1.65;0.35;;;;;;;3.94;100.00;95457.63;1031542;28;20380;-57
2021/03/12 01:52:39;;;;;;;1.63;0.28;;;;;;;3.95;100.00;95472.41;1027600;28;20027;-57
2021/03/12 01:53:10;;;;;;;1.15;0.25;;;;;;;3.96;100.00;95447.78;1027582;28;20121;-56
2021/03/12 01:53:41;;;;;;;0.43;0.10;;;;;;;3.98;100.00;95456.34;1027224;28;20025;-55
2021/03/12 01:54:12;;;;;;;1.85;0.28;;;;;;;3.97;100.00;95460.78;1031521;28;20408;-56
2021/03/12 01:54:43;;;;;;;1.77;0.30;;;;;;;3.96;100.00;95459.13;1027514;28;20022;-55
2021/03/12 01:55:27;;;;;;;0.63;0.20;;;;;;;3.95;100.00;95467.16;1023420;28;20027;-56
2021/03/12 01:55:58;;;;;;;2.05;0.15;;;;;;;3.96;100.00;95464.38;1031554;28;20106;-57
2021/03/12 01:56:28;;;;;;;0.47;0.13;;;;;;;3.95;100.00;95461.88;1027524;28;20533;-57
2021/03/12 01:56:59;;;;;;;2.08;0.52;;;;;;;3.96;100.00;95484.56;1023644;29;20521;-56
2021/03/12 01:57:30;;;;;;;2.53;0.30;;;;;;;3.98;100.00;95461.59;1027664;28;20074;-57
2021/03/12 01:58:01;;;;;;;1.13;0.20;;;;;;;3.97;100.00;95450.28;1027493;28;20481;-56
2021/03/12 01:58:32;;;;;;;0.85;0.30;;;;;;;3.98;100.00;95466.84;1035615;28;20022;-57
2021/03/12 01:59:03;;;;;;;1.13;0.30;;;;;;;3.99;100.00;95465.06;1023609;29;20027;-56
2021/03/12 01:59:33;;;;;;;0.70;0.20;;;;;;;3.97;100.00;95438.91;1031541;28;20026;-56
2021/03/12 02:00:05;;;;;;;0.63;0.30;;;;;;;3.99;100.00;95450.13;1031579;28;20198;-57
2021/03/12 02:00:36;;;;;;;0.73;0.20;;;;;;;3.99;100.00;95459.78;1023621;29;20046;-56
2021/03/12 02:01:06;;;;;;;0.32;0.10;;;;;;;4.02;100.00;95456.88;1027603;28;20019;-56
2021/03/12 02:01:37;;;;;;;0.43;0.20;;;;;;;4.00;100.00;95459.66;1027653;28;20496;-56
2021/03/12 02:02:08;;;;;;;2.17;0.43;;;;;;;4.01;100.00;95447.38;1027516;28;20025;-56
2021/03/12 02:02:39;;;;;;;0.75;0.35;;;;;;;4.01;100.00;95452.63;1019601;29;20028;-57
2021/03/12 02:03:11;;;;;;;1.25;0.20;;;;;;;3.99;100.00;95446.66;1023647;28;20043;-56
2021/03/12 02:03:42;;;;;;;0.80;0.20;;;;;;;3.96;100.00;95451.25;1027328;28;20093;-56
2021/03/12 02:04:13;;;;;;;1.17;0.17;;;;;;;3.97;100.00;95446.81;1019477;29;20095;-56
2021/03/12 02:04:43;;;;;;;0.13;0.05;;;;;;;3.97;100.00;95445.03;1031699;28;20014;-56
2021/03/12 02:05:14;;;;;;;2.33;0.15;;;;;;;3.97;100.00;95452.91;1031639;28;20477;-57
2021/03/12 02:05:45;;;;;;;2.38;0.30;;;;;;;3.99;100.00;95441.41;1031353;28;20026;-54
2021/03/12 02:06:16;;;;;;;0.57;0.20;;;;;;;3.99;100.00;95446.66;1031468;28;20485;-55
2021/03/12 02:06:47;;;;;;;1.08;0.20;;;;;;;3.98;100.00;95453.72;1023564;28;20055;-56
2021/03/12 02:07:18;;;;;;;1.23;0.20;;;;;;;3.99;100.00;95463.28;1027527;28;20033;-56
2021/03/12 02:07:49;;;;;;;1.02;0.10;;;;;;;3.99;100.00;95465.91;1023530;28;20030;-56
2021/03/12 02:08:19;;;;;;;0.63;0.20;;;;;;;4.02;100.00;95443.75;1027514;28;20018;-52
2021/03/12 02:08:50;;;;;;;0.50;0.10;;;;;;;4.01;100.00;95452.63;1024016;28;20019;-56
2021/03/12 02:09:21;;;;;;;1.63;0.20;;;;;;;4.04;100.00;95453.16;1024401;28;20489;-56
2021/03/12 02:09:51;;;;;;;2.45;0.43;;;;;;;4.03;100.00;95450.66;1024373;28;20517;-56
2021/03/12 02:10:26;;;;;;;1.45;0.17;;;;;;;4.03;100.00;95450.66;1028264;28;20037;-56
2021/03/12 02:10:57;;;;;;;0.93;0.30;;;;;;;4.04;100.00;95452.28;1020310;29;20079;-57
2021/03/12 02:11:28;;;;;;;0.75;0.30;;;;;;;4.03;100.00;95451.47;1028380;28;20133;-56
2021/03/12 02:12:12;;;;;;;1.00;0.17;;;;;;;4.06;100.00;95453.81;1028323;28;20429;-56
2021/03/12 02:12:54;;;;;;;0.63;0.10;;;;;;;4.08;100.00;95461.56;1020189;29;20024;-54
2021/03/12 02:13:31;;;;;;;0.80;0.20;;;;;;;4.09;100.00;95457.94;1028251;28;20040;-56
2021/03/12 02:14:05;;;;;;;2.17;0.25;;;;;;;4.10;100.00;95438.59;1028252;28;20019;-57
2021/03/12 02:14:42;;;;;;;1.38;0.20;;;;;;;4.14;100.00;95443.41;1020207;28;20020;-55
2021/03/12 02:15:16;;;;;;;2.22;0.20;;;;;;;4.19;100.00;95461.34;1032227;28;20034;-56
2021/03/12 02:15:57;;;;;;;0.57;0.20;;;;;;;4.18;100.00;95464.94;1032256;28;20401;-55
2021/03/12 02:16:33;;;;;;;1.08;0.25;;;;;;;4.19;100.00;95461.34;1024344;28;20023;-57
2021/03/12 02:17:09;;;;;;;1.02;0.20;;;;;;;4.21;100.00;95450.69;1024229;28;20378;-57
2021/03/12 02:17:44;;;;;;;1.95;0.30;;;;;;;4.21;100.00;95446.22;1020377;28;20111;-57
2021/03/12 02:18:20;;;;;;;0.30;0.17;;;;;;;4.20;100.00;95434.09;1028309;28;20154;-56
2021/03/12 02:19:02;;;;;;;1.35;0.10;;;;;;;4.20;100.00;95449.00;1034578;28;20635;-56
2021/03/12 02:19:53;;;;;;;1.17;0.30;;;;;;;4.23;100.00;95441.69;1032335;28;20557;-57
2021/03/12 02:20:38;;;;;;;1.25;0.43;;;;;;;4.20;100.00;95449.00;1028524;28;20131;-56
2021/03/12 02:21:29;;;;;;;2.10;0.30;;;;;;;4.21;100.00;95442.78;1025443;28;20030;-55
2021/03/12 02:21:59;;;;;;;0.70;0.20;;;;;;;4.13;100.00;95438.28;1028504;28;20041;-56
2021/03/12 02:22:31;;;;;;;1.38;0.22;;;;;;;4.17;100.00;95436.19;1020308;29;20412;-55
2021/03/12 02:23:11;;;;;;;0.95;0.10;;;;;;;4.16;100.00;95453.75;1032155;28;20026;-57
2021/03/12 02:23:48;;;;;;;2.05;0.20;;;;;;;4.10;100.00;95444.66;1028126;28;20030;-57
2021/03/12 02:24:29;;;;;;;0.63;0.30;;;;;;;4.10;100.00;95455.16;1024350;29;20078;-56
2021/03/12 02:25:16;;;;;;;1.13;0.30;;;;;;;4.02;100.00;95441.13;1024176;28;20027;-55
2021/03/12 02:25:52;;;;;;;0.50;0.25;;;;;;;4.13;100.00;95448.81;1024162;29;20090;-55
2021/03/12 02:26:36;;;;;;;1.85;0.20;;;;;;;4.13;100.00;95469.81;1028746;28;20109;-57
2021/03/12 02:27:09;;;;;;;0.68;0.20;;;;;;;4.13;100.00;95425.97;1028172;28;20054;-57
2021/03/12 02:27:41;;;;;;;2.72;0.35;;;;;;;4.14;100.00;95438.16;1031138;28;20022;-55
2021/03/12 02:28:11;;;;;;;1.85;0.20;;;;;;;4.15;100.00;95438.97;1036327;28;20124;-55
2021/03/12 02:28:42;;;;;;;1.38;0.32;;;;;;;4.10;100.00;95449.91;1032329;28;20030;-56
2021/03/12 02:29:15;;;;;;;1.38;0.43;;;;;;;4.08;100.00;95440.53;1036244;28;20425;-56
2021/03/12 02:29:49;;;;;;;4.60;1.05;;;;;;;4.04;100.00;95440.00;1028275;28;20019;-57
2021/03/12 02:30:19;;;;;;;2.20;0.30;;;;;;;4.05;100.00;95451.34;1032339;28;20081;-56